sensor_id;sensor_type;location;lat;lon;timestamp;P1;durP1;ratioP1;P2;durP2;ratioP2
51006;SDS011;37034;47.886;-3.904;2023-05-10T00:02:19;43.90;;;5.57;;
51006;SDS011;37034;47.886;-3.904;2023-05-10T00:04:44;36.63;;;6.67;;
51006;SDS011;37034;47.886;-3.904;2023-05-10T00:07:10;43.77;;;5.57;;
51006;SDS011;37034;47.886;-3.904;2023-05-10T00:09:36;37.87;;;6.13;;
51006;SDS011;37034;47.886;-3.904;2023-05-10T00:12:01;40.80;;;5.57;;
51006;SDS011;37034;47.886;-3.904;2023-05-10T00:14:27;43.00;;;6.37;;
51006;SDS011;37034;47.886;-3.904;2023-05-10T00:16:53;42.37;;;6.53;;
51006;SDS011;37034;47.886;-3.904;2023-05-10T00:19:18;42.13;;;6.37;;
51006;SDS011;37034;47.886;-3.904;2023-05-10T00:21:44;28.03;;;5.07;;
51006;SDS011;37034;47.886;-3.904;2023-05-10T00:24:10;44.80;;;6.33;;
51006;SDS011;37034;47.886;-3.904;2023-05-10T00:26:35;48.70;;;6.32;;
51006;SDS011;37034;47.886;-3.904;2023-05-10T00:29:01;44.50;;;5.87;;
51006;SDS011;37034;47.886;-3.904;2023-05-10T00:31:27;32.42;;;4.90;;
51006;SDS011;37034;47.886;-3.904;2023-05-10T00:33:53;42.83;;;7.33;;
51006;SDS011;37034;47.886;-3.904;2023-05-10T00:36:18;49.57;;;5.97;;
51006;SDS011;37034;47.886;-3.904;2023-05-10T00:38:44;35.97;;;4.80;;
51006;SDS011;37034;47.886;-3.904;2023-05-10T00:41:10;41.95;;;6.13;;
51006;SDS011;37034;47.886;-3.904;2023-05-10T00:43:40;35.70;;;5.03;;
51006;SDS011;37034;47.886;-3.904;2023-05-10T00:46:06;42.92;;;6.88;;
51006;SDS011;37034;47.886;-3.904;2023-05-10T00:48:32;29.33;;;4.57;;
51006;SDS011;37034;47.886;-3.904;2023-05-10T00:50:58;43.08;;;7.32;;
51006;SDS011;37034;47.886;-3.904;2023-05-10T00:53:24;41.58;;;5.63;;
51006;SDS011;37034;47.886;-3.904;2023-05-10T00:55:50;27.88;;;4.40;;
51006;SDS011;37034;47.886;-3.904;2023-05-10T00:58:16;35.83;;;6.03;;
51006;SDS011;37034;47.886;-3.904;2023-05-10T01:00:42;32.22;;;5.93;;
51006;SDS011;37034;47.886;-3.904;2023-05-10T01:03:11;45.17;;;5.57;;
51006;SDS011;37034;47.886;-3.904;2023-05-10T01:05:37;40.13;;;5.05;;
51006;SDS011;37034;47.886;-3.904;2023-05-10T01:08:03;38.65;;;5.78;;
51006;SDS011;37034;47.886;-3.904;2023-05-10T01:10:29;34.00;;;5.30;;
51006;SDS011;37034;47.886;-3.904;2023-05-10T01:12:56;37.95;;;6.10;;
51006;SDS011;37034;47.886;-3.904;2023-05-10T01:15:22;38.95;;;5.32;;
51006;SDS011;37034;47.886;-3.904;2023-05-10T01:17:48;34.85;;;5.45;;
51006;SDS011;37034;47.886;-3.904;2023-05-10T01:20:14;42.00;;;6.15;;
51006;SDS011;37034;47.886;-3.904;2023-05-10T01:28:37;49.15;;;5.88;;
51006;SDS011;37034;47.886;-3.904;2023-05-10T01:31:35;40.90;;;5.43;;
51006;SDS011;37034;47.886;-3.904;2023-05-10T01:37:33;32.90;;;5.15;;
51006;SDS011;37034;47.886;-3.904;2023-05-10T01:42:35;32.75;;;4.57;;
51006;SDS011;37034;47.886;-3.904;2023-05-10T01:45:13;55.20;;;6.93;;
51006;SDS011;37034;47.886;-3.904;2023-05-10T01:48:10;36.25;;;4.82;;
51006;SDS011;37034;47.886;-3.904;2023-05-10T01:50:39;41.70;;;6.22;;
51006;SDS011;37034;47.886;-3.904;2023-05-10T01:53:09;34.67;;;5.72;;
51006;SDS011;37034;47.886;-3.904;2023-05-10T01:55:43;35.03;;;6.15;;
51006;SDS011;37034;47.886;-3.904;2023-05-10T01:58:17;41.30;;;5.65;;
51006;SDS011;37034;47.886;-3.904;2023-05-10T02:00:58;37.50;;;5.57;;
51006;SDS011;37034;47.886;-3.904;2023-05-10T02:03:26;42.45;;;5.75;;
51006;SDS011;37034;47.886;-3.904;2023-05-10T02:05:53;39.40;;;5.53;;
51006;SDS011;37034;47.886;-3.904;2023-05-10T02:08:21;52.90;;;6.88;;
51006;SDS011;37034;47.886;-3.904;2023-05-10T02:13:14;46.72;;;5.60;;
51006;SDS011;37034;47.886;-3.904;2023-05-10T02:15:42;31.50;;;4.93;;
51006;SDS011;37034;47.886;-3.904;2023-05-10T02:18:09;38.15;;;5.22;;
51006;SDS011;37034;47.886;-3.904;2023-05-10T02:20:36;39.42;;;5.55;;
51006;SDS011;37034;47.886;-3.904;2023-05-10T02:23:03;38.03;;;6.28;;
51006;SDS011;37034;47.886;-3.904;2023-05-10T02:25:32;34.50;;;5.28;;
51006;SDS011;37034;47.886;-3.904;2023-05-10T02:27:58;48.17;;;5.82;;
51006;SDS011;37034;47.886;-3.904;2023-05-10T02:30:26;33.88;;;4.97;;
51006;SDS011;37034;47.886;-3.904;2023-05-10T02:32:53;41.03;;;5.85;;
51006;SDS011;37034;47.886;-3.904;2023-05-10T02:35:20;40.42;;;6.13;;
51006;SDS011;37034;47.886;-3.904;2023-05-10T02:37:48;34.90;;;4.93;;
51006;SDS011;37034;47.886;-3.904;2023-05-10T02:40:15;29.25;;;4.80;;
51006;SDS011;37034;47.886;-3.904;2023-05-10T02:42:42;25.92;;;3.42;;
51006;SDS011;37034;47.886;-3.904;2023-05-10T02:45:14;24.23;;;4.13;;
51006;SDS011;37034;47.886;-3.904;2023-05-10T02:47:43;29.27;;;3.90;;
51006;SDS011;37034;47.886;-3.904;2023-05-10T02:50:09;26.90;;;3.53;;
51006;SDS011;37034;47.886;-3.904;2023-05-10T02:52:45;26.17;;;4.85;;
51006;SDS011;37034;47.886;-3.904;2023-05-10T02:55:14;21.70;;;3.78;;
51006;SDS011;37034;47.886;-3.904;2023-05-10T02:57:43;23.90;;;3.70;;
51006;SDS011;37034;47.886;-3.904;2023-05-10T03:00:24;25.23;;;4.07;;
51006;SDS011;37034;47.886;-3.904;2023-05-10T03:05:18;25.38;;;4.65;;
51006;SDS011;37034;47.886;-3.904;2023-05-10T03:07:45;38.65;;;5.30;;
51006;SDS011;37034;47.886;-3.904;2023-05-10T03:10:11;32.92;;;4.10;;
51006;SDS011;37034;47.886;-3.904;2023-05-10T03:18:33;25.38;;;4.00;;
51006;SDS011;37034;47.886;-3.904;2023-05-10T03:21:08;25.27;;;3.22;;
51006;SDS011;37034;47.886;-3.904;2023-05-10T03:26:31;28.52;;;4.93;;
51006;SDS011;37034;47.886;-3.904;2023-05-10T03:28:57;29.42;;;3.70;;
51006;SDS011;37034;47.886;-3.904;2023-05-10T03:31:24;30.52;;;4.60;;
51006;SDS011;37034;47.886;-3.904;2023-05-10T03:33:50;39.72;;;5.68;;
51006;SDS011;37034;47.886;-3.904;2023-05-10T03:38:43;36.50;;;4.85;;
51006;SDS011;37034;47.886;-3.904;2023-05-10T03:41:08;30.83;;;4.83;;
51006;SDS011;37034;47.886;-3.904;2023-05-10T03:43:34;41.50;;;6.33;;
51006;SDS011;37034;47.886;-3.904;2023-05-10T03:46:03;29.83;;;4.50;;
51006;SDS011;37034;47.886;-3.904;2023-05-10T03:48:30;34.95;;;5.20;;
51006;SDS011;37034;47.886;-3.904;2023-05-10T03:53:22;25.52;;;4.20;;
51006;SDS011;37034;47.886;-3.904;2023-05-10T03:55:48;31.77;;;4.97;;
51006;SDS011;37034;47.886;-3.904;2023-05-10T03:58:14;40.22;;;6.05;;
51006;SDS011;37034;47.886;-3.904;2023-05-10T04:00:40;33.88;;;4.85;;
51006;SDS011;37034;47.886;-3.904;2023-05-10T04:03:10;33.58;;;5.47;;
51006;SDS011;37034;47.886;-3.904;2023-05-10T04:08:02;36.33;;;5.03;;
51006;SDS011;37034;47.886;-3.904;2023-05-10T04:10:28;42.55;;;5.10;;
51006;SDS011;37034;47.886;-3.904;2023-05-10T04:12:57;27.67;;;4.30;;
51006;SDS011;37034;47.886;-3.904;2023-05-10T04:15:23;27.13;;;4.28;;
51006;SDS011;37034;47.886;-3.904;2023-05-10T04:17:51;31.13;;;4.20;;
51006;SDS011;37034;47.886;-3.904;2023-05-10T04:20:18;28.48;;;3.42;;
51006;SDS011;37034;47.886;-3.904;2023-05-10T04:22:44;37.13;;;4.60;;
51006;SDS011;37034;47.886;-3.904;2023-05-10T04:25:09;33.90;;;4.63;;
51006;SDS011;37034;47.886;-3.904;2023-05-10T04:27:35;40.13;;;5.07;;
51006;SDS011;37034;47.886;-3.904;2023-05-10T04:30:02;35.60;;;5.22;;
51006;SDS011;37034;47.886;-3.904;2023-05-10T04:32:29;40.15;;;5.38;;
51006;SDS011;37034;47.886;-3.904;2023-05-10T04:34:55;35.83;;;5.20;;
51006;SDS011;37034;47.886;-3.904;2023-05-10T04:37:20;36.40;;;5.07;;
51006;SDS011;37034;47.886;-3.904;2023-05-10T04:39:47;38.03;;;6.07;;
51006;SDS011;37034;47.886;-3.904;2023-05-10T04:42:13;34.47;;;5.53;;
51006;SDS011;37034;47.886;-3.904;2023-05-10T04:44:40;24.70;;;4.10;;
51006;SDS011;37034;47.886;-3.904;2023-05-10T04:47:05;47.00;;;6.45;;
51006;SDS011;37034;47.886;-3.904;2023-05-10T04:49:31;34.90;;;4.47;;
51006;SDS011;37034;47.886;-3.904;2023-05-10T04:51:57;34.53;;;5.30;;
51006;SDS011;37034;47.886;-3.904;2023-05-10T04:54:23;44.43;;;5.83;;
51006;SDS011;37034;47.886;-3.904;2023-05-10T04:56:48;38.28;;;5.65;;
51006;SDS011;37034;47.886;-3.904;2023-05-10T04:59:14;38.17;;;5.00;;
51006;SDS011;37034;47.886;-3.904;2023-05-10T05:01:40;32.53;;;5.10;;
51006;SDS011;37034;47.886;-3.904;2023-05-10T05:04:05;32.33;;;4.70;;
51006;SDS011;37034;47.886;-3.904;2023-05-10T05:06:31;42.35;;;5.70;;
51006;SDS011;37034;47.886;-3.904;2023-05-10T05:08:57;31.65;;;4.07;;
51006;SDS011;37034;47.886;-3.904;2023-05-10T05:11:23;37.33;;;5.37;;
51006;SDS011;37034;47.886;-3.904;2023-05-10T05:13:49;37.67;;;5.53;;
51006;SDS011;37034;47.886;-3.904;2023-05-10T05:16:17;34.42;;;4.32;;
51006;SDS011;37034;47.886;-3.904;2023-05-10T05:18:42;32.70;;;5.10;;
51006;SDS011;37034;47.886;-3.904;2023-05-10T05:21:15;39.70;;;5.63;;
51006;SDS011;37034;47.886;-3.904;2023-05-10T05:23:41;47.90;;;6.15;;
51006;SDS011;37034;47.886;-3.904;2023-05-10T05:26:07;42.30;;;5.37;;
51006;SDS011;37034;47.886;-3.904;2023-05-10T05:28:33;38.67;;;4.97;;
51006;SDS011;37034;47.886;-3.904;2023-05-10T05:31:02;39.90;;;5.20;;
51006;SDS011;37034;47.886;-3.904;2023-05-10T05:33:28;37.90;;;5.10;;
51006;SDS011;37034;47.886;-3.904;2023-05-10T05:35:53;41.03;;;6.10;;
51006;SDS011;37034;47.886;-3.904;2023-05-10T05:38:19;42.50;;;5.17;;
51006;SDS011;37034;47.886;-3.904;2023-05-10T05:40:45;41.03;;;6.00;;
51006;SDS011;37034;47.886;-3.904;2023-05-10T05:43:10;37.67;;;5.13;;
51006;SDS011;37034;47.886;-3.904;2023-05-10T05:45:36;28.67;;;5.05;;
51006;SDS011;37034;47.886;-3.904;2023-05-10T05:48:02;46.72;;;5.68;;
51006;SDS011;37034;47.886;-3.904;2023-05-10T05:50:28;32.70;;;4.60;;
51006;SDS011;37034;47.886;-3.904;2023-05-10T05:52:53;34.27;;;4.57;;
51006;SDS011;37034;47.886;-3.904;2023-05-10T05:55:19;40.17;;;5.00;;
51006;SDS011;37034;47.886;-3.904;2023-05-10T05:57:45;31.47;;;4.30;;
51006;SDS011;37034;47.886;-3.904;2023-05-10T06:00:10;32.97;;;4.50;;
51006;SDS011;37034;47.886;-3.904;2023-05-10T06:02:36;31.88;;;4.30;;
51006;SDS011;37034;47.886;-3.904;2023-05-10T06:05:02;35.75;;;4.63;;
51006;SDS011;37034;47.886;-3.904;2023-05-10T06:07:28;37.47;;;4.60;;
51006;SDS011;37034;47.886;-3.904;2023-05-10T06:09:54;29.02;;;4.05;;
51006;SDS011;37034;47.886;-3.904;2023-05-10T06:12:19;31.53;;;4.73;;
51006;SDS011;37034;47.886;-3.904;2023-05-10T06:14:45;27.23;;;4.03;;
51006;SDS011;37034;47.886;-3.904;2023-05-10T06:17:11;35.50;;;4.93;;
51006;SDS011;37034;47.886;-3.904;2023-05-10T06:19:36;39.17;;;4.22;;
51006;SDS011;37034;47.886;-3.904;2023-05-10T06:22:02;33.73;;;4.90;;
51006;SDS011;37034;47.886;-3.904;2023-05-10T06:24:28;36.75;;;5.82;;
51006;SDS011;37034;47.886;-3.904;2023-05-10T06:26:54;39.67;;;4.20;;
51006;SDS011;37034;47.886;-3.904;2023-05-10T06:29:25;40.72;;;4.82;;
51006;SDS011;37034;47.886;-3.904;2023-05-10T06:31:51;32.35;;;4.97;;
51006;SDS011;37034;47.886;-3.904;2023-05-10T06:34:16;30.40;;;4.03;;
51006;SDS011;37034;47.886;-3.904;2023-05-10T06:36:47;38.85;;;4.55;;
51006;SDS011;37034;47.886;-3.904;2023-05-10T06:39:12;30.13;;;5.30;;
51006;SDS011;37034;47.886;-3.904;2023-05-10T06:41:39;31.33;;;5.13;;
51006;SDS011;37034;47.886;-3.904;2023-05-10T06:44:04;39.40;;;5.17;;
51006;SDS011;37034;47.886;-3.904;2023-05-10T06:46:33;32.60;;;4.80;;
51006;SDS011;37034;47.886;-3.904;2023-05-10T06:49:21;43.72;;;4.88;;
51006;SDS011;37034;47.886;-3.904;2023-05-10T06:52:03;28.10;;;4.37;;
51006;SDS011;37034;47.886;-3.904;2023-05-10T06:54:32;38.67;;;5.40;;
51006;SDS011;37034;47.886;-3.904;2023-05-10T06:57:05;29.20;;;3.75;;
51006;SDS011;37034;47.886;-3.904;2023-05-10T07:02:36;20.83;;;2.85;;
51006;SDS011;37034;47.886;-3.904;2023-05-10T07:05:02;19.33;;;2.80;;
51006;SDS011;37034;47.886;-3.904;2023-05-10T07:07:27;21.25;;;3.13;;
51006;SDS011;37034;47.886;-3.904;2023-05-10T07:09:53;19.88;;;2.40;;
51006;SDS011;37034;47.886;-3.904;2023-05-10T07:12:21;21.92;;;3.28;;
51006;SDS011;37034;47.886;-3.904;2023-05-10T07:14:47;27.67;;;4.00;;
51006;SDS011;37034;47.886;-3.904;2023-05-10T07:17:12;15.10;;;2.03;;
51006;SDS011;37034;47.886;-3.904;2023-05-10T07:19:38;13.20;;;2.25;;
51006;SDS011;37034;47.886;-3.904;2023-05-10T07:22:04;12.95;;;2.33;;
51006;SDS011;37034;47.886;-3.904;2023-05-10T07:24:30;10.10;;;2.20;;
51006;SDS011;37034;47.886;-3.904;2023-05-10T07:26:56;14.07;;;2.72;;
51006;SDS011;37034;47.886;-3.904;2023-05-10T07:29:22;14.03;;;2.20;;
51006;SDS011;37034;47.886;-3.904;2023-05-10T07:31:47;14.87;;;2.47;;
51006;SDS011;37034;47.886;-3.904;2023-05-10T07:34:13;17.07;;;2.20;;
51006;SDS011;37034;47.886;-3.904;2023-05-10T07:36:39;12.95;;;1.80;;
51006;SDS011;37034;47.886;-3.904;2023-05-10T07:39:07;16.17;;;2.72;;
51006;SDS011;37034;47.886;-3.904;2023-05-10T07:41:33;14.53;;;2.23;;
51006;SDS011;37034;47.886;-3.904;2023-05-10T07:43:58;15.60;;;2.43;;
51006;SDS011;37034;47.886;-3.904;2023-05-10T07:46:24;15.35;;;2.22;;
51006;SDS011;37034;47.886;-3.904;2023-05-10T07:48:50;16.13;;;2.55;;
51006;SDS011;37034;47.886;-3.904;2023-05-10T07:51:16;20.83;;;2.57;;
51006;SDS011;37034;47.886;-3.904;2023-05-10T07:53:41;17.13;;;2.85;;
51006;SDS011;37034;47.886;-3.904;2023-05-10T07:56:21;20.17;;;2.90;;
51006;SDS011;37034;47.886;-3.904;2023-05-10T07:58:57;17.05;;;2.53;;
51006;SDS011;37034;47.886;-3.904;2023-05-10T08:01:24;19.90;;;2.85;;
51006;SDS011;37034;47.886;-3.904;2023-05-10T08:03:50;23.05;;;2.90;;
51006;SDS011;37034;47.886;-3.904;2023-05-10T08:06:17;21.60;;;3.00;;
51006;SDS011;37034;47.886;-3.904;2023-05-10T08:08:43;19.55;;;3.42;;
51006;SDS011;37034;47.886;-3.904;2023-05-10T08:11:14;21.98;;;2.83;;
51006;SDS011;37034;47.886;-3.904;2023-05-10T08:13:43;18.25;;;3.38;;
51006;SDS011;37034;47.886;-3.904;2023-05-10T08:16:11;16.23;;;2.60;;
51006;SDS011;37034;47.886;-3.904;2023-05-10T08:18:37;17.08;;;3.17;;
51006;SDS011;37034;47.886;-3.904;2023-05-10T08:21:03;16.30;;;3.33;;
51006;SDS011;37034;47.886;-3.904;2023-05-10T08:23:29;17.35;;;2.78;;
51006;SDS011;37034;47.886;-3.904;2023-05-10T08:25:55;17.02;;;2.90;;
51006;SDS011;37034;47.886;-3.904;2023-05-10T08:28:21;18.77;;;2.63;;
51006;SDS011;37034;47.886;-3.904;2023-05-10T08:30:47;18.10;;;3.63;;
51006;SDS011;37034;47.886;-3.904;2023-05-10T08:33:12;19.27;;;2.70;;
51006;SDS011;37034;47.886;-3.904;2023-05-10T08:35:38;16.77;;;2.67;;
51006;SDS011;37034;47.886;-3.904;2023-05-10T08:38:04;24.60;;;3.53;;
51006;SDS011;37034;47.886;-3.904;2023-05-10T08:40:30;19.75;;;4.57;;
51006;SDS011;37034;47.886;-3.904;2023-05-10T08:43:02;19.05;;;3.03;;
51006;SDS011;37034;47.886;-3.904;2023-05-10T08:45:38;19.08;;;2.90;;
51006;SDS011;37034;47.886;-3.904;2023-05-10T08:48:06;22.83;;;3.40;;
51006;SDS011;37034;47.886;-3.904;2023-05-10T08:50:35;24.50;;;2.80;;
51006;SDS011;37034;47.886;-3.904;2023-05-10T08:53:03;26.30;;;4.47;;
51006;SDS011;37034;47.886;-3.904;2023-05-10T08:55:34;19.35;;;3.05;;
51006;SDS011;37034;47.886;-3.904;2023-05-10T08:58:02;56.20;;;23.95;;
51006;SDS011;37034;47.886;-3.904;2023-05-10T09:00:29;22.77;;;2.72;;
51006;SDS011;37034;47.886;-3.904;2023-05-10T09:05:25;19.40;;;3.03;;
51006;SDS011;37034;47.886;-3.904;2023-05-10T09:07:51;18.30;;;2.78;;
51006;SDS011;37034;47.886;-3.904;2023-05-10T09:10:18;18.02;;;2.75;;
51006;SDS011;37034;47.886;-3.904;2023-05-10T09:12:44;28.27;;;3.70;;
51006;SDS011;37034;47.886;-3.904;2023-05-10T09:15:10;15.88;;;2.35;;
51006;SDS011;37034;47.886;-3.904;2023-05-10T09:17:38;16.63;;;2.97;;
51006;SDS011;37034;47.886;-3.904;2023-05-10T09:20:05;16.75;;;3.13;;
51006;SDS011;37034;47.886;-3.904;2023-05-10T09:22:32;14.57;;;1.77;;
51006;SDS011;37034;47.886;-3.904;2023-05-10T09:25:08;16.25;;;1.98;;
51006;SDS011;37034;47.886;-3.904;2023-05-10T09:27:36;19.60;;;2.20;;
51006;SDS011;37034;47.886;-3.904;2023-05-10T09:32:55;15.82;;;2.45;;
51006;SDS011;37034;47.886;-3.904;2023-05-10T09:35:25;10.60;;;1.70;;
51006;SDS011;37034;47.886;-3.904;2023-05-10T09:37:52;16.27;;;2.33;;
51006;SDS011;37034;47.886;-3.904;2023-05-10T09:40:24;15.38;;;2.45;;
51006;SDS011;37034;47.886;-3.904;2023-05-10T09:43:01;12.43;;;1.90;;
51006;SDS011;37034;47.886;-3.904;2023-05-10T09:45:30;19.95;;;2.17;;
51006;SDS011;37034;47.886;-3.904;2023-05-10T09:47:56;12.35;;;1.70;;
51006;SDS011;37034;47.886;-3.904;2023-05-10T09:51:24;19.42;;;2.67;;
51006;SDS011;37034;47.886;-3.904;2023-05-10T09:53:35;13.98;;;1.80;;
51006;SDS011;37034;47.886;-3.904;2023-05-10T09:56:43;11.93;;;2.15;;
51006;SDS011;37034;47.886;-3.904;2023-05-10T09:59:03;14.20;;;2.35;;
51006;SDS011;37034;47.886;-3.904;2023-05-10T10:01:29;17.85;;;5.50;;
51006;SDS011;37034;47.886;-3.904;2023-05-10T10:04:11;19.15;;;2.78;;
51006;SDS011;37034;47.886;-3.904;2023-05-10T10:06:40;15.35;;;2.35;;
51006;SDS011;37034;47.886;-3.904;2023-05-10T10:09:06;16.50;;;2.55;;
51006;SDS011;37034;47.886;-3.904;2023-05-10T10:35:36;13.50;;;2.08;;
51006;SDS011;37034;47.886;-3.904;2023-05-10T10:38:02;18.48;;;2.28;;
51006;SDS011;37034;47.886;-3.904;2023-05-10T10:40:31;13.77;;;2.00;;
51006;SDS011;37034;47.886;-3.904;2023-05-10T10:43:20;10.98;;;1.73;;
51006;SDS011;37034;47.886;-3.904;2023-05-10T10:46:10;11.60;;;1.95;;
51006;SDS011;37034;47.886;-3.904;2023-05-10T10:48:39;13.13;;;2.13;;
51006;SDS011;37034;47.886;-3.904;2023-05-10T10:51:05;16.75;;;2.15;;
51006;SDS011;37034;47.886;-3.904;2023-05-10T10:53:31;19.67;;;2.53;;
51006;SDS011;37034;47.886;-3.904;2023-05-10T10:58:34;17.02;;;2.15;;
51006;SDS011;37034;47.886;-3.904;2023-05-10T11:01:14;13.70;;;2.78;;
51006;SDS011;37034;47.886;-3.904;2023-05-10T11:03:41;12.60;;;2.40;;
51006;SDS011;37034;47.886;-3.904;2023-05-10T11:06:31;16.00;;;2.60;;
51006;SDS011;37034;47.886;-3.904;2023-05-10T11:08:59;19.30;;;3.15;;
51006;SDS011;37034;47.886;-3.904;2023-05-10T11:14:23;19.27;;;2.70;;
51006;SDS011;37034;47.886;-3.904;2023-05-10T11:16:52;20.33;;;2.55;;
51006;SDS011;37034;47.886;-3.904;2023-05-10T11:20:33;21.58;;;3.58;;
51006;SDS011;37034;47.886;-3.904;2023-05-10T11:25:46;17.58;;;2.55;;
51006;SDS011;37034;47.886;-3.904;2023-05-10T11:28:14;19.98;;;4.07;;
51006;SDS011;37034;47.886;-3.904;2023-05-10T11:30:43;22.15;;;3.45;;
51006;SDS011;37034;47.886;-3.904;2023-05-10T11:36:10;17.45;;;3.08;;
51006;SDS011;37034;47.886;-3.904;2023-05-10T11:38:36;24.60;;;3.22;;
51006;SDS011;37034;47.886;-3.904;2023-05-10T11:41:05;16.75;;;2.58;;
51006;SDS011;37034;47.886;-3.904;2023-05-10T11:46:46;14.50;;;3.10;;
51006;SDS011;37034;47.886;-3.904;2023-05-10T11:49:16;25.73;;;3.38;;
51006;SDS011;37034;47.886;-3.904;2023-05-10T11:51:41;22.70;;;3.35;;
51006;SDS011;37034;47.886;-3.904;2023-05-10T11:56:37;20.55;;;3.35;;
51006;SDS011;37034;47.886;-3.904;2023-05-10T11:59:03;13.43;;;2.47;;
51006;SDS011;37034;47.886;-3.904;2023-05-10T12:01:30;23.80;;;3.78;;
51006;SDS011;37034;47.886;-3.904;2023-05-10T12:03:56;12.77;;;2.40;;
51006;SDS011;37034;47.886;-3.904;2023-05-10T12:06:26;14.90;;;3.72;;
51006;SDS011;37034;47.886;-3.904;2023-05-10T12:08:53;20.08;;;3.05;;
51006;SDS011;37034;47.886;-3.904;2023-05-10T12:11:19;20.63;;;3.03;;
51006;SDS011;37034;47.886;-3.904;2023-05-10T12:13:46;20.70;;;3.17;;
51006;SDS011;37034;47.886;-3.904;2023-05-10T12:16:16;18.05;;;2.92;;
51006;SDS011;37034;47.886;-3.904;2023-05-10T12:18:52;18.67;;;2.60;;
51006;SDS011;37034;47.886;-3.904;2023-05-10T12:21:19;16.90;;;2.60;;
51006;SDS011;37034;47.886;-3.904;2023-05-10T12:23:46;16.08;;;3.10;;
51006;SDS011;37034;47.886;-3.904;2023-05-10T12:26:18;16.98;;;2.35;;
51006;SDS011;37034;47.886;-3.904;2023-05-10T12:29:12;14.98;;;2.15;;
51006;SDS011;37034;47.886;-3.904;2023-05-10T12:32:20;14.93;;;2.70;;
51006;SDS011;37034;47.886;-3.904;2023-05-10T12:34:46;13.23;;;2.13;;
51006;SDS011;37034;47.886;-3.904;2023-05-10T12:37:12;17.15;;;2.42;;
51006;SDS011;37034;47.886;-3.904;2023-05-10T12:39:40;12.77;;;2.38;;
51006;SDS011;37034;47.886;-3.904;2023-05-10T12:42:08;14.25;;;2.17;;
51006;SDS011;37034;47.886;-3.904;2023-05-10T12:44:40;11.57;;;2.38;;
51006;SDS011;37034;47.886;-3.904;2023-05-10T12:47:06;10.82;;;1.98;;
51006;SDS011;37034;47.886;-3.904;2023-05-10T12:49:31;14.43;;;2.20;;
51006;SDS011;37034;47.886;-3.904;2023-05-10T12:51:57;14.93;;;2.13;;
51006;SDS011;37034;47.886;-3.904;2023-05-10T12:54:23;7.95;;;1.52;;
51006;SDS011;37034;47.886;-3.904;2023-05-10T12:56:49;11.65;;;2.20;;
51006;SDS011;37034;47.886;-3.904;2023-05-10T12:59:17;15.50;;;2.35;;
51006;SDS011;37034;47.886;-3.904;2023-05-10T13:01:42;13.88;;;2.10;;
51006;SDS011;37034;47.886;-3.904;2023-05-10T13:04:08;13.45;;;2.00;;
51006;SDS011;37034;47.886;-3.904;2023-05-10T13:06:37;9.52;;;1.77;;
51006;SDS011;37034;47.886;-3.904;2023-05-10T13:09:02;8.70;;;1.63;;
51006;SDS011;37034;47.886;-3.904;2023-05-10T13:11:28;10.05;;;1.70;;
51006;SDS011;37034;47.886;-3.904;2023-05-10T13:13:54;12.13;;;2.28;;
51006;SDS011;37034;47.886;-3.904;2023-05-10T13:16:30;15.50;;;2.20;;
51006;SDS011;37034;47.886;-3.904;2023-05-10T13:18:59;13.88;;;2.28;;
51006;SDS011;37034;47.886;-3.904;2023-05-10T13:21:24;6.80;;;1.90;;
51006;SDS011;37034;47.886;-3.904;2023-05-10T13:23:53;10.70;;;1.90;;
51006;SDS011;37034;47.886;-3.904;2023-05-10T13:26:29;22.33;;;5.22;;
51006;SDS011;37034;47.886;-3.904;2023-05-10T13:28:55;12.65;;;1.95;;
51006;SDS011;37034;47.886;-3.904;2023-05-10T13:31:20;10.90;;;1.77;;
51006;SDS011;37034;47.886;-3.904;2023-05-10T13:33:55;11.45;;;1.77;;
51006;SDS011;37034;47.886;-3.904;2023-05-10T13:36:21;11.18;;;2.15;;
51006;SDS011;37034;47.886;-3.904;2023-05-10T13:38:47;10.57;;;1.73;;
51006;SDS011;37034;47.886;-3.904;2023-05-10T13:41:13;14.13;;;2.00;;
51006;SDS011;37034;47.886;-3.904;2023-05-10T13:43:39;16.83;;;2.17;;
51006;SDS011;37034;47.886;-3.904;2023-05-10T13:46:10;9.20;;;1.70;;
51006;SDS011;37034;47.886;-3.904;2023-05-10T13:48:36;15.63;;;2.35;;
51006;SDS011;37034;47.886;-3.904;2023-05-10T13:53:58;19.98;;;3.47;;
51006;SDS011;37034;47.886;-3.904;2023-05-10T13:56:30;14.65;;;1.95;;
51006;SDS011;37034;47.886;-3.904;2023-05-10T13:58:56;18.45;;;2.80;;
51006;SDS011;37034;47.886;-3.904;2023-05-10T14:01:23;16.98;;;2.22;;
51006;SDS011;37034;47.886;-3.904;2023-05-10T14:09:53;8.82;;;1.70;;
51006;SDS011;37034;47.886;-3.904;2023-05-10T14:12:21;13.93;;;1.75;;
51006;SDS011;37034;47.886;-3.904;2023-05-10T14:14:47;13.35;;;1.83;;
51006;SDS011;37034;47.886;-3.904;2023-05-10T14:17:18;21.67;;;1.67;;
51006;SDS011;37034;47.886;-3.904;2023-05-10T14:19:44;8.05;;;2.00;;
51006;SDS011;37034;47.886;-3.904;2023-05-10T14:22:10;8.43;;;1.30;;
51006;SDS011;37034;47.886;-3.904;2023-05-10T14:24:38;9.15;;;1.70;;
51006;SDS011;37034;47.886;-3.904;2023-05-10T14:27:08;7.68;;;1.15;;
51006;SDS011;37034;47.886;-3.904;2023-05-10T14:29:34;10.00;;;1.45;;
51006;SDS011;37034;47.886;-3.904;2023-05-10T14:31:59;10.48;;;1.85;;
51006;SDS011;37034;47.886;-3.904;2023-05-10T14:34:37;7.43;;;1.27;;
51006;SDS011;37034;47.886;-3.904;2023-05-10T14:37:02;9.70;;;1.98;;
51006;SDS011;37034;47.886;-3.904;2023-05-10T14:39:42;5.30;;;1.30;;
51006;SDS011;37034;47.886;-3.904;2023-05-10T14:42:17;7.18;;;1.27;;
51006;SDS011;37034;47.886;-3.904;2023-05-10T14:44:53;8.55;;;0.93;;
51006;SDS011;37034;47.886;-3.904;2023-05-10T14:47:19;4.95;;;1.48;;
51006;SDS011;37034;47.886;-3.904;2023-05-10T14:49:44;6.22;;;0.85;;
51006;SDS011;37034;47.886;-3.904;2023-05-10T14:52:10;6.50;;;1.27;;
51006;SDS011;37034;47.886;-3.904;2023-05-10T14:54:37;7.97;;;1.00;;
51006;SDS011;37034;47.886;-3.904;2023-05-10T14:57:05;8.35;;;1.30;;
51006;SDS011;37034;47.886;-3.904;2023-05-10T14:59:34;9.13;;;1.13;;
51006;SDS011;37034;47.886;-3.904;2023-05-10T15:02:00;7.53;;;1.02;;
51006;SDS011;37034;47.886;-3.904;2023-05-10T15:04:31;6.82;;;1.25;;
51006;SDS011;37034;47.886;-3.904;2023-05-10T15:07:05;8.43;;;1.33;;
51006;SDS011;37034;47.886;-3.904;2023-05-10T15:09:31;5.10;;;0.80;;
51006;SDS011;37034;47.886;-3.904;2023-05-10T15:15:34;6.10;;;0.90;;
51006;SDS011;37034;47.886;-3.904;2023-05-10T16:33:29;5.85;;;1.35;;
51006;SDS011;37034;47.886;-3.904;2023-05-10T16:35:55;8.93;;;1.75;;
51006;SDS011;37034;47.886;-3.904;2023-05-10T16:38:26;8.38;;;1.17;;
51006;SDS011;37034;47.886;-3.904;2023-05-10T16:40:52;8.07;;;1.38;;
51006;SDS011;37034;47.886;-3.904;2023-05-10T16:43:17;12.50;;;2.28;;
51006;SDS011;37034;47.886;-3.904;2023-05-10T16:45:51;6.05;;;1.00;;
51006;SDS011;37034;47.886;-3.904;2023-05-10T16:48:16;11.75;;;2.17;;
51006;SDS011;37034;47.886;-3.904;2023-05-10T16:50:42;10.90;;;1.65;;
51006;SDS011;37034;47.886;-3.904;2023-05-10T16:53:14;10.27;;;1.40;;
51006;SDS011;37034;47.886;-3.904;2023-05-10T16:55:42;9.57;;;1.10;;
51006;SDS011;37034;47.886;-3.904;2023-05-10T16:58:08;8.95;;;1.48;;
51006;SDS011;37034;47.886;-3.904;2023-05-10T17:00:33;9.02;;;1.60;;
51006;SDS011;37034;47.886;-3.904;2023-05-10T17:03:00;10.05;;;1.27;;
51006;SDS011;37034;47.886;-3.904;2023-05-10T17:05:25;10.90;;;1.20;;
51006;SDS011;37034;47.886;-3.904;2023-05-10T17:07:51;7.43;;;1.27;;
51006;SDS011;37034;47.886;-3.904;2023-05-10T17:10:17;8.40;;;1.17;;
51006;SDS011;37034;47.886;-3.904;2023-05-10T17:12:44;10.55;;;1.30;;
51006;SDS011;37034;47.886;-3.904;2023-05-10T17:15:10;7.85;;;1.05;;
51006;SDS011;37034;47.886;-3.904;2023-05-10T17:17:36;12.60;;;1.45;;
51006;SDS011;37034;47.886;-3.904;2023-05-10T17:20:02;7.82;;;0.85;;
51006;SDS011;37034;47.886;-3.904;2023-05-10T17:22:29;8.02;;;1.40;;